createdAt,value
2019-02-04T00:00:52.666Z,46.70
2019-02-04T00:03:41.468Z,46.70
2019-02-04T00:06:30.329Z,46.70
2019-02-04T00:09:19.094Z,46.70
2019-02-04T00:12:07.749Z,46.70
2019-02-04T00:14:56.803Z,46.60
2019-02-04T00:17:45.047Z,46.60
2019-02-04T00:20:34.217Z,46.60
2019-02-04T00:23:23.146Z,46.60
2019-02-04T00:26:11.936Z,46.60
2019-02-04T00:29:00.473Z,46.40
2019-02-04T00:31:49.632Z,46.30
2019-02-04T00:34:37.840Z,46.30
2019-02-04T00:37:26.436Z,46.20
2019-02-04T00:40:21.768Z,46.20
2019-02-04T00:43:10.918Z,46.20
2019-02-04T00:46:01.450Z,46.20
2019-02-04T00:48:50.540Z,46.10
2019-02-04T00:51:39.003Z,46.10
2019-02-04T00:54:27.103Z,46.10
2019-02-04T00:57:15.782Z,46.10
2019-02-04T01:00:07.630Z,46.10
2019-02-04T01:02:56.752Z,46.10
2019-02-04T01:05:45.097Z,46.10
2019-02-04T01:08:33.563Z,46.20
2019-02-04T01:11:22.173Z,46.20
2019-02-04T01:14:10.719Z,46.20
2019-02-04T01:17:03.520Z,46.30
2019-02-04T01:19:49.887Z,46.40
2019-02-04T01:22:39.245Z,46.40
2019-02-04T01:25:28.429Z,46.40
2019-02-04T01:28:17.137Z,46.40
2019-02-04T01:31:06.390Z,46.40
2019-02-04T01:33:55.025Z,46.50
2019-02-04T01:36:43.418Z,46.50
2019-02-04T01:39:32.757Z,46.50
2019-02-04T01:42:21.006Z,46.50
2019-02-04T01:45:10.409Z,46.50
2019-02-04T01:47:59.481Z,46.50
2019-02-04T01:50:47.950Z,46.40
2019-02-04T01:53:36.356Z,46.40
2019-02-04T01:56:25.700Z,46.30
2019-02-04T01:59:14.248Z,46.30
2019-02-04T02:02:02.683Z,46.20
2019-02-04T02:04:51.359Z,46.30
2019-02-04T02:07:41.055Z,46.20
2019-02-04T02:10:29.993Z,46.20
2019-02-04T02:13:18.275Z,46.10
2019-02-04T02:16:07.840Z,46.10
2019-02-04T02:18:56.165Z,46.10
2019-02-04T02:21:44.751Z,46.10
2019-02-04T02:24:32.879Z,46.00
2019-02-04T02:27:21.683Z,46.00
2019-02-04T02:30:16.618Z,46.00
2019-02-04T02:33:05.251Z,46.00
2019-02-04T02:35:54.173Z,46.00
2019-02-04T02:38:43.186Z,46.00
2019-02-04T02:41:31.429Z,46.00
2019-02-04T02:44:20.097Z,46.00
2019-02-04T02:47:08.944Z,45.90
2019-02-04T02:50:00.448Z,46.00
2019-02-04T02:52:48.114Z,45.90
2019-02-04T02:55:36.457Z,46.00
2019-02-04T02:58:25.357Z,46.00
2019-02-04T03:01:13.726Z,46.00
2019-02-04T03:04:02.603Z,46.00
2019-02-04T03:06:51.170Z,46.10
2019-02-04T03:09:39.978Z,46.00
2019-02-04T03:12:28.915Z,45.90
2019-02-04T03:15:17.402Z,46.00
2019-02-04T03:18:06.122Z,46.00
2019-02-04T03:20:54.353Z,46.00
2019-02-04T03:23:42.880Z,46.10
2019-02-04T03:26:31.352Z,46.10
2019-02-04T03:29:20.110Z,46.00
2019-02-04T03:32:08.581Z,46.00
2019-02-04T03:34:57.330Z,45.90
2019-02-04T03:37:45.940Z,46.00
2019-02-04T03:40:35.529Z,46.00
2019-02-04T03:43:23.814Z,45.90
2019-02-04T03:46:12.599Z,45.90
2019-02-04T03:49:01.024Z,45.80
2019-02-04T03:51:49.254Z,45.80
2019-02-04T03:54:38.074Z,45.70
2019-02-04T03:57:26.915Z,45.70
2019-02-04T04:00:21.265Z,45.60
2019-02-04T04:03:09.474Z,45.60
2019-02-04T04:05:57.863Z,45.60
2019-02-04T04:08:46.749Z,45.50
2019-02-04T04:11:34.840Z,45.60
2019-02-04T04:14:23.586Z,45.50
2019-02-04T04:17:12.527Z,45.60
2019-02-04T04:20:00.988Z,45.60
2019-02-04T04:22:49.304Z,45.60
2019-02-04T04:25:38.077Z,45.60
2019-02-04T04:28:26.710Z,45.60
2019-02-04T04:31:17.084Z,45.60
2019-02-04T04:34:05.303Z,45.60
2019-02-04T04:36:54.221Z,45.60
2019-02-04T04:39:42.822Z,45.60
2019-02-04T04:42:31.216Z,45.60
2019-02-04T04:45:22.963Z,45.60
2019-02-04T04:48:12.057Z,45.60
2019-02-04T04:51:00.271Z,45.70
2019-02-04T04:53:48.561Z,45.70
2019-02-04T04:56:37.199Z,45.70
2019-02-04T04:59:26.253Z,45.60
2019-02-04T05:02:15.025Z,45.60
2019-02-04T05:05:04.284Z,45.60
2019-02-04T05:07:52.761Z,45.60
2019-02-04T05:10:41.719Z,45.70
2019-02-04T05:13:30.467Z,45.60
2019-02-04T05:16:19.166Z,45.60
2019-02-04T05:19:08.102Z,45.60
2019-02-04T05:21:56.549Z,45.50
2019-02-04T05:24:45.773Z,45.50
2019-02-04T05:27:34.598Z,45.40
2019-02-04T05:30:25.552Z,45.40
2019-02-04T05:33:14.745Z,45.40
2019-02-04T05:36:03.291Z,45.40
2019-02-04T05:38:51.447Z,45.40
2019-02-04T05:41:39.789Z,45.40
2019-02-04T05:44:28.556Z,45.40
2019-02-04T05:47:19.255Z,45.40
2019-02-04T05:50:10.650Z,45.40
2019-02-04T05:52:59.048Z,45.40
2019-02-04T05:55:47.590Z,45.40
2019-02-04T05:58:35.860Z,45.50
2019-02-04T06:01:25.346Z,45.40
2019-02-04T06:04:13.646Z,45.40
2019-02-04T06:07:02.270Z,45.40
2019-02-04T06:09:50.540Z,45.40
2019-02-04T06:12:39.180Z,45.50
2019-02-04T06:15:27.588Z,45.50
2019-02-04T06:18:16.074Z,45.40
2019-02-04T06:21:04.419Z,45.40
2019-02-04T06:23:52.630Z,45.40
2019-02-04T06:26:41.426Z,45.40
2019-02-04T06:29:30.651Z,45.40
2019-02-04T06:32:19.920Z,45.50
2019-02-04T06:35:09.098Z,45.40
2019-02-04T06:37:57.717Z,45.40
2019-02-04T06:40:45.865Z,45.40
2019-02-04T06:43:34.236Z,45.50
2019-02-04T06:46:22.622Z,45.60
2019-02-04T06:49:12.515Z,45.60
2019-02-04T06:52:00.792Z,45.60
2019-02-04T06:54:49.301Z,45.60
2019-02-04T06:57:38.125Z,45.70
2019-02-04T07:00:26.754Z,45.90
2019-02-04T07:03:15.038Z,46.10
2019-02-04T07:06:03.307Z,46.00
2019-02-04T07:08:52.093Z,46.00
2019-02-04T07:11:40.764Z,46.00
2019-02-04T07:14:28.924Z,46.20
2019-02-04T07:17:17.726Z,46.40
2019-02-04T07:20:09.108Z,46.80
2019-02-04T07:22:57.751Z,46.80
2019-02-04T07:25:45.942Z,47.00
2019-02-04T07:28:35.284Z,47.10
2019-02-04T07:31:23.489Z,47.40
2019-02-04T07:34:11.954Z,47.30
2019-02-04T07:37:00.578Z,46.90
2019-02-04T07:39:49.573Z,46.30
2019-02-04T07:42:38.269Z,46.30
2019-02-04T07:45:26.504Z,45.80
2019-02-04T07:48:14.870Z,46.00
2019-02-04T07:51:03.259Z,45.80
2019-02-04T07:53:52.882Z,45.40
2019-02-04T07:56:42.175Z,45.20
2019-02-04T07:59:30.705Z,45.70
2019-02-04T08:02:18.951Z,46.30
2019-02-04T08:05:07.902Z,47.00
2019-02-04T08:07:57.447Z,47.00
2019-02-04T08:10:46.423Z,47.00
2019-02-04T08:13:34.652Z,47.20
2019-02-04T08:16:23.066Z,47.00
2019-02-04T08:19:11.662Z,46.80
2019-02-04T08:21:59.961Z,46.80
2019-02-04T08:24:49.528Z,46.60
2019-02-04T08:27:38.329Z,46.20
2019-02-04T08:30:32.538Z,45.90
2019-02-04T08:33:20.788Z,45.70
2019-02-04T08:36:09.672Z,45.20
2019-02-04T08:38:58.457Z,45.20
2019-02-04T08:41:46.884Z,45.10
2019-02-04T08:44:35.289Z,45.20
2019-02-04T08:47:24.209Z,45.00
2019-02-04T08:50:21.699Z,44.90
2019-02-04T08:53:10.085Z,44.80
2019-02-04T08:55:58.327Z,44.70
2019-02-04T08:58:46.708Z,44.50
2019-02-04T09:01:34.966Z,44.40
2019-02-04T09:04:23.619Z,44.50
2019-02-04T09:07:11.788Z,44.50
2019-02-04T09:10:00.317Z,44.50
2019-02-04T09:12:48.944Z,44.50
2019-02-04T09:15:37.695Z,44.50
2019-02-04T09:18:26.298Z,44.50
2019-02-04T09:21:15.378Z,44.30
2019-02-04T09:24:05.014Z,44.20
2019-02-04T09:26:53.383Z,44.10
2019-02-04T09:29:42.823Z,44.00
2019-02-04T09:32:31.384Z,44.10
2019-02-04T09:35:22.031Z,44.00
2019-02-04T09:38:10.224Z,44.00
2019-02-04T09:40:58.726Z,44.00
2019-02-04T09:43:47.310Z,44.00
2019-02-04T09:46:36.539Z,43.90
2019-02-04T09:49:25.239Z,43.90
2019-02-04T09:52:13.570Z,43.80
2019-02-04T09:55:02.030Z,43.70
2019-02-04T09:57:50.737Z,43.80
2019-02-04T10:00:39.379Z,43.60
2019-02-04T10:03:28.142Z,43.50
2019-02-04T10:06:17.125Z,43.50
2019-02-04T10:09:07.716Z,43.50
2019-02-04T10:11:56.083Z,43.50
2019-02-04T10:14:44.612Z,43.40
2019-02-04T10:17:33.908Z,43.40
2019-02-04T10:20:32.981Z,43.40
2019-02-04T10:23:12.305Z,43.40
2019-02-04T10:26:00.584Z,43.30
2019-02-04T10:28:49.316Z,43.30
2019-02-04T10:31:37.957Z,43.20
2019-02-04T10:34:26.788Z,43.30
2019-02-04T10:37:15.684Z,43.20
2019-02-04T10:40:07.242Z,43.10
2019-02-04T10:42:56.059Z,43.10
2019-02-04T10:45:44.555Z,43.00
2019-02-04T10:48:33.908Z,43.00
2019-02-04T10:51:22.667Z,43.10
2019-02-04T10:54:11.953Z,43.00
2019-02-04T10:57:00.473Z,43.00
2019-02-04T10:59:49.051Z,43.00
2019-02-04T11:02:37.552Z,42.90
2019-02-04T11:05:28.764Z,42.80
2019-02-04T11:08:17.707Z,42.80
2019-02-04T11:11:06.432Z,42.80
2019-02-04T11:13:55.063Z,42.80
2019-02-04T11:16:43.513Z,42.70
2019-02-04T11:19:31.977Z,42.80
2019-02-04T11:22:20.600Z,42.80
2019-02-04T11:25:10.818Z,42.80
2019-02-04T11:27:58.829Z,42.80
2019-02-04T11:30:56.253Z,42.90
2019-02-04T11:33:44.331Z,42.80
2019-02-04T11:36:33.063Z,43.10
2019-02-04T11:39:22.223Z,43.50
2019-02-04T11:42:10.816Z,43.30
2019-02-04T11:44:59.681Z,43.40
2019-02-04T11:47:49.315Z,43.40
2019-02-04T11:50:37.786Z,43.30
2019-02-04T11:53:33.007Z,43.30
2019-02-04T11:56:16.466Z,43.20
2019-02-04T11:59:05.270Z,43.30
2019-02-04T12:01:53.866Z,43.30
2019-02-04T12:04:42.223Z,43.20
2019-02-04T12:07:30.800Z,43.20
2019-02-04T12:10:28.675Z,43.30
2019-02-04T12:13:16.880Z,43.30
2019-02-04T12:16:06.304Z,43.40
2019-02-04T12:18:54.479Z,43.10
2019-02-04T12:21:42.715Z,43.00
2019-02-04T12:24:31.075Z,43.00
2019-02-04T12:27:31.569Z,42.90
2019-02-04T12:30:15.440Z,42.90
2019-02-04T12:33:05.729Z,43.00
2019-02-04T12:35:54.642Z,42.80
2019-02-04T12:38:44.241Z,42.80
2019-02-04T12:41:32.500Z,42.80
2019-02-04T12:44:22.103Z,42.70
2019-02-04T12:47:11.239Z,42.60
2019-02-04T12:49:59.795Z,42.70
2019-02-04T12:52:48.506Z,42.70
2019-02-04T12:55:37.933Z,42.70
2019-02-04T12:58:26.367Z,42.60
2019-02-04T13:01:15.535Z,42.70
2019-02-04T13:04:04.830Z,42.70
2019-02-04T13:06:53.611Z,42.70
2019-02-04T13:09:42.510Z,42.80
2019-02-04T13:12:30.840Z,42.80
2019-02-04T13:15:22.486Z,42.80
2019-02-04T13:18:11.618Z,42.80
2019-02-04T13:21:00.900Z,43.10
2019-02-04T13:23:49.524Z,43.90
2019-02-04T13:26:38.294Z,45.40
2019-02-04T13:29:26.835Z,45.80
2019-02-04T13:32:15.451Z,46.50
2019-02-04T13:35:05.263Z,46.60
2019-02-04T13:37:54.192Z,46.50
2019-02-04T13:40:44.764Z,46.10
2019-02-04T13:43:33.265Z,45.60
2019-02-04T13:46:21.814Z,45.30
2019-02-04T13:49:10.517Z,45.10
2019-02-04T13:51:59.351Z,44.90
2019-02-04T13:54:47.622Z,44.70
2019-02-04T13:57:36.366Z,44.60
2019-02-04T14:00:27.182Z,44.20
2019-02-04T14:03:17.839Z,44.00
2019-02-04T14:06:09.276Z,44.00
2019-02-04T14:08:57.905Z,44.10
2019-02-04T14:11:46.282Z,44.10
2019-02-04T14:14:35.138Z,44.30
2019-02-04T14:17:24.510Z,44.40
2019-02-04T14:20:16.343Z,44.40
2019-02-04T14:23:05.155Z,44.40
2019-02-04T14:25:53.665Z,44.40
2019-02-04T14:28:42.418Z,44.30
2019-02-04T14:31:30.825Z,44.30
2019-02-04T14:34:20.484Z,44.10
2019-02-04T14:37:09.047Z,44.00
2019-02-04T14:39:57.555Z,43.90
2019-02-04T14:42:48.669Z,43.90
2019-02-04T14:46:05.907Z,43.90
2019-02-04T14:49:00.290Z,43.80
2019-02-04T14:51:58.220Z,43.90
2019-02-04T14:55:08.937Z,43.30
2019-02-04T14:58:18.493Z,43.20
2019-02-04T15:01:21.590Z,43.10
2019-02-04T15:04:15.387Z,43.10
2019-02-04T15:07:12.940Z,43.00
2019-02-04T15:10:10.575Z,43.00
2019-02-04T15:13:16.919Z,43.00
2019-02-04T15:16:31.266Z,42.90
2019-02-04T15:19:40.740Z,42.90
2019-02-04T15:22:47.504Z,42.90
2019-02-04T15:25:55.623Z,42.80
2019-02-04T15:28:46.780Z,42.70
2019-02-04T15:32:01.735Z,42.70
2019-02-04T15:35:04.832Z,42.60
2019-02-04T15:38:07.540Z,42.60
2019-02-04T15:40:58.547Z,42.60
2019-02-04T15:43:58.725Z,42.60
2019-02-04T15:47:02.115Z,42.50
2019-02-04T15:50:14.611Z,42.50
2019-02-04T15:53:04.090Z,42.50
2019-02-04T15:55:52.493Z,42.40
2019-02-04T15:58:40.879Z,42.40
2019-02-04T16:01:29.451Z,42.90
2019-02-04T16:04:26.282Z,42.40
2019-02-04T16:07:14.519Z,42.40
2019-02-04T16:10:02.563Z,42.40
2019-02-04T16:12:51.120Z,42.30
2019-02-04T16:15:42.380Z,42.40
2019-02-04T16:18:31.413Z,42.30
2019-02-04T16:21:22.246Z,42.40
2019-02-04T16:24:11.267Z,42.50
2019-02-04T16:26:59.739Z,42.50
2019-02-04T16:29:49.200Z,42.40
2019-02-04T16:32:37.447Z,42.30
2019-02-04T16:35:27.493Z,42.30
2019-02-04T16:38:16.349Z,42.20
2019-02-04T16:41:04.864Z,42.20
2019-02-04T16:43:53.123Z,42.10
2019-02-04T16:46:42.010Z,42.00
2019-02-04T16:49:30.600Z,42.00
2019-02-04T16:52:19.294Z,41.90
2019-02-04T16:55:09.190Z,41.90
2019-02-04T16:57:57.581Z,42.60
2019-02-04T17:00:46.300Z,42.00
2019-02-04T17:03:34.942Z,42.10
2019-02-04T17:06:23.537Z,42.00
2019-02-04T17:09:13.563Z,42.00
2019-02-04T17:12:02.074Z,41.90
2019-02-04T17:14:50.335Z,41.90
2019-02-04T17:17:38.764Z,41.90
2019-02-04T17:20:33.941Z,41.80
2019-02-04T17:23:22.821Z,41.80
2019-02-04T17:26:11.583Z,41.70
2019-02-04T17:28:59.795Z,41.70
2019-02-04T17:31:48.399Z,41.60
2019-02-04T17:34:36.964Z,41.60
2019-02-04T17:37:25.417Z,41.50
2019-02-04T17:40:19.437Z,41.50
2019-02-04T17:43:08.309Z,41.40
2019-02-04T17:45:56.587Z,41.40
2019-02-04T17:48:45.215Z,41.40
2019-02-04T17:51:33.444Z,41.40
2019-02-04T17:54:21.968Z,41.40
2019-02-04T17:57:10.805Z,41.40
2019-02-04T17:59:58.910Z,41.40
2019-02-04T18:02:48.071Z,41.40
2019-02-04T18:05:36.908Z,41.30
2019-02-04T18:08:25.300Z,41.30
2019-02-04T18:11:13.784Z,41.30
2019-02-04T18:14:02.197Z,41.20
2019-02-04T18:16:50.516Z,41.20
2019-02-04T18:19:39.026Z,41.30
2019-02-04T18:22:27.553Z,41.20
2019-02-04T18:25:21.312Z,41.20
2019-02-04T18:28:09.904Z,41.20
2019-02-04T18:30:58.161Z,41.30
2019-02-04T18:33:46.505Z,41.20
2019-02-04T18:36:35.215Z,41.30
2019-02-04T18:39:24.919Z,41.30
2019-02-04T18:42:13.613Z,41.20
2019-02-04T18:45:03.086Z,41.20
2019-02-04T18:47:51.566Z,41.20
2019-02-04T18:50:40.782Z,41.20
2019-02-04T18:53:28.917Z,41.20
2019-02-04T18:56:18.646Z,41.20
2019-02-04T18:59:07.398Z,41.10
2019-02-04T19:01:55.937Z,41.10
2019-02-04T19:04:44.397Z,41.30
2019-02-04T19:07:32.982Z,41.20
2019-02-04T19:10:23.668Z,41.20
2019-02-04T19:13:12.194Z,41.20
2019-02-04T19:16:01.638Z,41.30
2019-02-04T19:18:50.016Z,41.50
2019-02-04T19:21:40.219Z,41.50
2019-02-04T19:24:28.588Z,41.60
2019-02-04T19:27:17.123Z,41.60
2019-02-04T19:30:08.762Z,41.60
2019-02-04T19:32:56.926Z,41.60
2019-02-04T19:48:26.472Z,41.80
2019-02-04T19:51:26.221Z,41.80
2019-02-04T19:54:21.601Z,41.80
2019-02-04T19:57:04.698Z,41.90
2019-02-04T19:59:53.425Z,41.80
2019-02-04T20:02:42.339Z,41.80
2019-02-04T20:05:32.925Z,41.80
2019-02-04T20:08:21.280Z,41.80
2019-02-04T20:11:10.272Z,41.80
2019-02-04T20:14:03.406Z,41.80
2019-02-04T20:16:52.816Z,41.80
2019-02-04T20:19:41.534Z,41.80
2019-02-04T20:22:30.056Z,41.70
2019-02-04T20:25:21.726Z,41.80
2019-02-04T20:28:09.900Z,41.70
2019-02-04T20:30:58.425Z,41.80
2019-02-04T20:33:46.924Z,41.70
2019-02-04T20:36:35.496Z,41.70
2019-02-04T20:39:24.441Z,41.60
2019-02-04T20:42:13.723Z,41.60
2019-02-04T20:45:03.521Z,41.60
2019-02-04T20:47:52.865Z,41.70
2019-02-04T20:50:47.262Z,41.60
2019-02-04T20:53:36.040Z,41.60
2019-02-04T20:56:24.594Z,41.60
2019-02-04T20:59:13.219Z,41.60
2019-02-04T21:02:01.550Z,41.60
2019-02-04T21:04:50.145Z,41.60
2019-02-04T21:07:39.894Z,41.60
2019-02-04T21:10:30.004Z,41.60
2019-02-04T21:13:18.754Z,41.60
2019-02-04T21:16:07.642Z,41.60
2019-02-04T21:18:55.879Z,41.60
2019-02-04T21:21:44.312Z,41.70
2019-02-04T21:24:33.038Z,41.70
2019-02-04T21:27:21.721Z,41.80
2019-02-04T21:30:13.473Z,41.80
2019-02-04T21:33:02.132Z,41.90
2019-02-04T21:35:50.321Z,42.00
2019-02-04T21:38:38.664Z,42.00
2019-02-04T21:41:26.991Z,42.10
2019-02-04T21:44:16.113Z,42.10
2019-02-04T21:47:04.608Z,42.10
2019-02-04T21:49:53.116Z,42.20
2019-02-04T21:52:41.279Z,42.20
2019-02-04T21:55:29.717Z,42.30
2019-02-04T21:58:18.648Z,42.40
2019-02-04T22:01:07.276Z,42.40
2019-02-04T22:03:55.667Z,42.50
2019-02-04T22:06:44.681Z,42.60
2019-02-04T22:09:33.289Z,42.60
2019-02-04T22:12:21.773Z,42.80
2019-02-04T22:15:10.183Z,42.90
2019-02-04T22:17:58.572Z,42.90
2019-02-04T22:20:46.859Z,43.00
2019-02-04T22:23:35.645Z,43.10
2019-02-04T22:26:23.734Z,43.10
2019-02-04T22:29:12.345Z,43.10
2019-02-04T22:32:02.388Z,43.30
2019-02-04T22:34:51.228Z,43.30
2019-02-04T22:37:39.819Z,43.30
2019-02-04T22:40:30.095Z,43.50
2019-02-04T22:43:18.572Z,43.50
2019-02-04T22:46:07.351Z,43.60
2019-02-04T22:48:55.747Z,43.60
2019-02-04T22:51:44.035Z,43.70
2019-02-04T22:54:33.058Z,43.80
2019-02-04T22:57:21.509Z,43.80
2019-02-04T23:00:29.816Z,43.80
2019-02-04T23:03:21.269Z,43.90
2019-02-04T23:06:11.183Z,43.90
2019-02-04T23:09:00.763Z,44.00
2019-02-04T23:11:49.867Z,44.10
2019-02-04T23:14:38.510Z,44.20
2019-02-04T23:17:27.003Z,44.30
2019-02-04T23:20:15.561Z,44.30
2019-02-04T23:23:05.500Z,44.40
2019-02-04T23:25:53.833Z,44.40
2019-02-04T23:28:42.443Z,44.40
2019-02-04T23:31:30.786Z,44.40
2019-02-04T23:34:19.086Z,44.50
2019-02-04T23:37:07.754Z,44.60
2019-02-04T23:39:56.416Z,44.60
2019-02-04T23:42:45.265Z,44.60
2019-02-04T23:45:34.089Z,44.50
2019-02-04T23:48:22.235Z,44.60
2019-02-04T23:51:10.635Z,44.60
2019-02-04T23:53:59.090Z,44.60
2019-02-04T23:56:47.998Z,44.60
2019-02-04T23:59:36.390Z,44.60
